sensor_id;sensor_type;location;lat;lon;timestamp;P1;durP1;ratioP1;P2;durP2;ratioP2
45236;SDS011;30973;51.442;3.580;2022-08-21T00:00:15;12.48;;;2.20;;
45236;SDS011;30973;51.442;3.580;2022-08-21T00:02:49;6.18;;;2.00;;
45236;SDS011;30973;51.442;3.580;2022-08-21T00:05:18;11.30;;;2.40;;
45236;SDS011;30973;51.442;3.580;2022-08-21T00:07:46;8.10;;;2.40;;
45236;SDS011;30973;51.442;3.580;2022-08-21T00:10:13;9.50;;;2.15;;
45236;SDS011;30973;51.442;3.580;2022-08-21T00:12:41;5.07;;;1.85;;
45236;SDS011;30973;51.442;3.580;2022-08-21T00:15:10;8.85;;;2.22;;
45236;SDS011;30973;51.442;3.580;2022-08-21T00:17:40;5.57;;;1.90;;
45236;SDS011;30973;51.442;3.580;2022-08-21T00:20:08;9.82;;;1.80;;
45236;SDS011;30973;51.442;3.580;2022-08-21T00:22:36;6.97;;;2.03;;
45236;SDS011;30973;51.442;3.580;2022-08-21T00:25:05;6.97;;;1.70;;
45236;SDS011;30973;51.442;3.580;2022-08-21T00:27:34;7.72;;;2.03;;
45236;SDS011;30973;51.442;3.580;2022-08-21T00:30:03;8.07;;;2.17;;
45236;SDS011;30973;51.442;3.580;2022-08-21T00:32:32;9.07;;;2.25;;
45236;SDS011;30973;51.442;3.580;2022-08-21T00:35:02;8.98;;;2.15;;
45236;SDS011;30973;51.442;3.580;2022-08-21T00:37:31;10.45;;;2.60;;
45236;SDS011;30973;51.442;3.580;2022-08-21T00:40:01;6.85;;;2.10;;
45236;SDS011;30973;51.442;3.580;2022-08-21T00:42:28;6.97;;;1.75;;
45236;SDS011;30973;51.442;3.580;2022-08-21T00:44:56;7.45;;;2.00;;
45236;SDS011;30973;51.442;3.580;2022-08-21T00:47:24;6.55;;;1.83;;
45236;SDS011;30973;51.442;3.580;2022-08-21T00:49:52;9.80;;;2.42;;
45236;SDS011;30973;51.442;3.580;2022-08-21T00:52:20;6.93;;;2.05;;
45236;SDS011;30973;51.442;3.580;2022-08-21T00:54:51;9.07;;;2.40;;
45236;SDS011;30973;51.442;3.580;2022-08-21T00:57:25;7.07;;;2.15;;
45236;SDS011;30973;51.442;3.580;2022-08-21T00:59:57;10.60;;;2.25;;
45236;SDS011;30973;51.442;3.580;2022-08-21T01:02:27;9.65;;;2.60;;
45236;SDS011;30973;51.442;3.580;2022-08-21T01:04:56;7.85;;;2.13;;
45236;SDS011;30973;51.442;3.580;2022-08-21T01:07:25;9.48;;;2.70;;
45236;SDS011;30973;51.442;3.580;2022-08-21T01:09:53;9.80;;;2.72;;
45236;SDS011;30973;51.442;3.580;2022-08-21T01:12:20;8.57;;;2.00;;
45236;SDS011;30973;51.442;3.580;2022-08-21T01:14:48;8.60;;;2.90;;
45236;SDS011;30973;51.442;3.580;2022-08-21T01:17:15;10.80;;;2.28;;
45236;SDS011;30973;51.442;3.580;2022-08-21T01:19:44;11.32;;;2.75;;
45236;SDS011;30973;51.442;3.580;2022-08-21T01:22:11;7.82;;;2.42;;
45236;SDS011;30973;51.442;3.580;2022-08-21T01:24:39;8.15;;;2.28;;
45236;SDS011;30973;51.442;3.580;2022-08-21T01:27:07;10.77;;;2.90;;
45236;SDS011;30973;51.442;3.580;2022-08-21T01:29:46;14.45;;;2.58;;
45236;SDS011;30973;51.442;3.580;2022-08-21T01:32:20;8.43;;;3.00;;
45236;SDS011;30973;51.442;3.580;2022-08-21T01:34:49;8.10;;;2.70;;
45236;SDS011;30973;51.442;3.580;2022-08-21T01:37:18;12.95;;;3.08;;
45236;SDS011;30973;51.442;3.580;2022-08-21T01:39:47;10.60;;;2.70;;
45236;SDS011;30973;51.442;3.580;2022-08-21T01:42:14;9.90;;;3.05;;
45236;SDS011;30973;51.442;3.580;2022-08-21T01:44:42;10.75;;;2.90;;
45236;SDS011;30973;51.442;3.580;2022-08-21T01:47:10;10.85;;;2.72;;
45236;SDS011;30973;51.442;3.580;2022-08-21T01:49:43;9.98;;;2.88;;
45236;SDS011;30973;51.442;3.580;2022-08-21T01:52:11;12.85;;;3.03;;
45236;SDS011;30973;51.442;3.580;2022-08-21T01:54:39;8.35;;;2.58;;
45236;SDS011;30973;51.442;3.580;2022-08-21T01:57:08;11.20;;;2.75;;
45236;SDS011;30973;51.442;3.580;2022-08-21T01:59:35;11.35;;;3.00;;
45236;SDS011;30973;51.442;3.580;2022-08-21T02:02:03;9.55;;;2.97;;
45236;SDS011;30973;51.442;3.580;2022-08-21T02:04:32;10.68;;;2.85;;
45236;SDS011;30973;51.442;3.580;2022-08-21T02:07:00;7.20;;;2.60;;
45236;SDS011;30973;51.442;3.580;2022-08-21T02:09:27;6.30;;;2.85;;
45236;SDS011;30973;51.442;3.580;2022-08-21T02:11:55;8.88;;;3.05;;
45236;SDS011;30973;51.442;3.580;2022-08-21T02:14:23;9.80;;;3.40;;
45236;SDS011;30973;51.442;3.580;2022-08-21T02:16:58;12.10;;;3.22;;
45236;SDS011;30973;51.442;3.580;2022-08-21T02:19:35;12.90;;;3.17;;
45236;SDS011;30973;51.442;3.580;2022-08-21T02:22:07;8.55;;;3.10;;
45236;SDS011;30973;51.442;3.580;2022-08-21T02:24:36;9.43;;;3.25;;
45236;SDS011;30973;51.442;3.580;2022-08-21T02:27:23;8.90;;;3.28;;
45236;SDS011;30973;51.442;3.580;2022-08-21T02:29:54;8.77;;;3.00;;
45236;SDS011;30973;51.442;3.580;2022-08-21T02:32:23;8.68;;;2.88;;
45236;SDS011;30973;51.442;3.580;2022-08-21T02:34:50;12.05;;;3.00;;
45236;SDS011;30973;51.442;3.580;2022-08-21T02:37:17;7.05;;;2.75;;
45236;SDS011;30973;51.442;3.580;2022-08-21T02:39:44;10.27;;;3.60;;
45236;SDS011;30973;51.442;3.580;2022-08-21T02:42:12;10.45;;;3.70;;
45236;SDS011;30973;51.442;3.580;2022-08-21T02:44:39;13.55;;;3.65;;
45236;SDS011;30973;51.442;3.580;2022-08-21T02:47:06;14.48;;;3.60;;
45236;SDS011;30973;51.442;3.580;2022-08-21T02:49:34;10.80;;;3.60;;
45236;SDS011;30973;51.442;3.580;2022-08-21T02:52:01;11.70;;;3.80;;
45236;SDS011;30973;51.442;3.580;2022-08-21T02:54:28;8.30;;;3.08;;
45236;SDS011;30973;51.442;3.580;2022-08-21T02:56:55;10.15;;;3.45;;
45236;SDS011;30973;51.442;3.580;2022-08-21T02:59:22;10.45;;;3.47;;
45236;SDS011;30973;51.442;3.580;2022-08-21T03:01:50;9.32;;;3.10;;
45236;SDS011;30973;51.442;3.580;2022-08-21T03:04:17;10.05;;;3.30;;
45236;SDS011;30973;51.442;3.580;2022-08-21T03:06:44;11.05;;;3.22;;
45236;SDS011;30973;51.442;3.580;2022-08-21T03:09:12;12.00;;;3.22;;
45236;SDS011;30973;51.442;3.580;2022-08-21T03:11:39;8.70;;;3.42;;
45236;SDS011;30973;51.442;3.580;2022-08-21T03:14:07;11.10;;;3.20;;
45236;SDS011;30973;51.442;3.580;2022-08-21T03:16:34;8.35;;;3.50;;
45236;SDS011;30973;51.442;3.580;2022-08-21T03:19:02;10.43;;;3.55;;
45236;SDS011;30973;51.442;3.580;2022-08-21T03:21:29;13.73;;;4.13;;
45236;SDS011;30973;51.442;3.580;2022-08-21T03:23:57;12.35;;;4.18;;
45236;SDS011;30973;51.442;3.580;2022-08-21T03:26:24;12.27;;;4.07;;
45236;SDS011;30973;51.442;3.580;2022-08-21T03:28:53;9.48;;;3.47;;
45236;SDS011;30973;51.442;3.580;2022-08-21T03:31:24;10.90;;;3.60;;
45236;SDS011;30973;51.442;3.580;2022-08-21T03:33:57;13.43;;;3.88;;
45236;SDS011;30973;51.442;3.580;2022-08-21T03:36:25;7.43;;;3.60;;
45236;SDS011;30973;51.442;3.580;2022-08-21T03:38:53;11.63;;;3.20;;
45236;SDS011;30973;51.442;3.580;2022-08-21T03:41:20;9.40;;;3.70;;
45236;SDS011;30973;51.442;3.580;2022-08-21T03:43:48;8.90;;;3.15;;
45236;SDS011;30973;51.442;3.580;2022-08-21T03:46:16;17.50;;;4.22;;
45236;SDS011;30973;51.442;3.580;2022-08-21T03:48:43;10.68;;;4.15;;
45236;SDS011;30973;51.442;3.580;2022-08-21T03:51:11;10.50;;;3.60;;
45236;SDS011;30973;51.442;3.580;2022-08-21T03:53:38;10.07;;;3.63;;
45236;SDS011;30973;51.442;3.580;2022-08-21T03:56:06;11.70;;;3.92;;
45236;SDS011;30973;51.442;3.580;2022-08-21T03:58:34;13.07;;;3.58;;
45236;SDS011;30973;51.442;3.580;2022-08-21T04:01:02;12.75;;;4.13;;
45236;SDS011;30973;51.442;3.580;2022-08-21T04:03:31;9.75;;;3.53;;
45236;SDS011;30973;51.442;3.580;2022-08-21T04:05:59;12.95;;;3.97;;
45236;SDS011;30973;51.442;3.580;2022-08-21T04:08:27;7.18;;;3.40;;
45236;SDS011;30973;51.442;3.580;2022-08-21T04:10:55;9.98;;;3.83;;
45236;SDS011;30973;51.442;3.580;2022-08-21T04:13:24;9.27;;;3.35;;
45236;SDS011;30973;51.442;3.580;2022-08-21T04:15:55;11.10;;;3.95;;
45236;SDS011;30973;51.442;3.580;2022-08-21T04:18:23;8.68;;;3.85;;
45236;SDS011;30973;51.442;3.580;2022-08-21T04:20:51;13.02;;;4.35;;
45236;SDS011;30973;51.442;3.580;2022-08-21T04:23:20;10.00;;;3.90;;
45236;SDS011;30973;51.442;3.580;2022-08-21T04:25:50;12.63;;;3.95;;
45236;SDS011;30973;51.442;3.580;2022-08-21T04:28:18;12.88;;;4.28;;
45236;SDS011;30973;51.442;3.580;2022-08-21T04:30:46;12.38;;;4.22;;
45236;SDS011;30973;51.442;3.580;2022-08-21T04:33:13;9.43;;;3.80;;
45236;SDS011;30973;51.442;3.580;2022-08-21T04:35:41;15.20;;;5.20;;
45236;SDS011;30973;51.442;3.580;2022-08-21T04:38:09;7.28;;;3.97;;
45236;SDS011;30973;51.442;3.580;2022-08-21T04:40:37;11.00;;;4.30;;
45236;SDS011;30973;51.442;3.580;2022-08-21T04:43:06;11.93;;;4.35;;
45236;SDS011;30973;51.442;3.580;2022-08-21T04:45:36;11.13;;;4.47;;
45236;SDS011;30973;51.442;3.580;2022-08-21T04:48:05;10.98;;;4.55;;
45236;SDS011;30973;51.442;3.580;2022-08-21T04:53:12;6.20;;;4.10;;
45236;SDS011;30973;51.442;3.580;2022-08-21T04:55:41;13.57;;;4.35;;
45236;SDS011;30973;51.442;3.580;2022-08-21T04:58:09;12.88;;;4.38;;
45236;SDS011;30973;51.442;3.580;2022-08-21T05:00:38;13.07;;;4.43;;
45236;SDS011;30973;51.442;3.580;2022-08-21T05:03:07;8.32;;;4.15;;
45236;SDS011;30973;51.442;3.580;2022-08-21T05:05:35;8.98;;;4.40;;
45236;SDS011;30973;51.442;3.580;2022-08-21T05:08:03;11.52;;;3.85;;
45236;SDS011;30973;51.442;3.580;2022-08-21T05:10:31;11.13;;;4.18;;
45236;SDS011;30973;51.442;3.580;2022-08-21T05:12:59;9.10;;;4.10;;
45236;SDS011;30973;51.442;3.580;2022-08-21T05:15:27;12.70;;;4.45;;
45236;SDS011;30973;51.442;3.580;2022-08-21T05:17:57;11.05;;;4.25;;
45236;SDS011;30973;51.442;3.580;2022-08-21T05:20:27;10.18;;;4.32;;
45236;SDS011;30973;51.442;3.580;2022-08-21T05:22:55;11.68;;;4.25;;
45236;SDS011;30973;51.442;3.580;2022-08-21T05:25:23;10.13;;;3.95;;
45236;SDS011;30973;51.442;3.580;2022-08-21T05:27:53;10.88;;;4.35;;
45236;SDS011;30973;51.442;3.580;2022-08-21T05:30:23;10.32;;;5.20;;
45236;SDS011;30973;51.442;3.580;2022-08-21T05:32:55;14.63;;;4.25;;
45236;SDS011;30973;51.442;3.580;2022-08-21T05:35:24;15.15;;;5.00;;
45236;SDS011;30973;51.442;3.580;2022-08-21T05:37:52;11.60;;;4.97;;
45236;SDS011;30973;51.442;3.580;2022-08-21T05:40:19;13.45;;;4.63;;
45236;SDS011;30973;51.442;3.580;2022-08-21T05:42:49;12.63;;;4.65;;
45236;SDS011;30973;51.442;3.580;2022-08-21T05:45:22;17.60;;;4.68;;
45236;SDS011;30973;51.442;3.580;2022-08-21T05:48:10;10.07;;;4.40;;
45236;SDS011;30973;51.442;3.580;2022-08-21T05:50:40;13.98;;;4.75;;
45236;SDS011;30973;51.442;3.580;2022-08-21T05:53:09;20.00;;;5.35;;
45236;SDS011;30973;51.442;3.580;2022-08-21T05:55:37;12.98;;;4.50;;
45236;SDS011;30973;51.442;3.580;2022-08-21T05:58:14;15.68;;;4.97;;
45236;SDS011;30973;51.442;3.580;2022-08-21T06:00:43;14.10;;;4.95;;
45236;SDS011;30973;51.442;3.580;2022-08-21T06:03:13;12.75;;;4.60;;
45236;SDS011;30973;51.442;3.580;2022-08-21T06:05:40;11.85;;;4.63;;
45236;SDS011;30973;51.442;3.580;2022-08-21T06:08:08;13.00;;;4.85;;
45236;SDS011;30973;51.442;3.580;2022-08-21T06:10:36;12.93;;;5.10;;
45236;SDS011;30973;51.442;3.580;2022-08-21T06:13:04;11.13;;;4.90;;
45236;SDS011;30973;51.442;3.580;2022-08-21T06:15:31;18.33;;;5.25;;
45236;SDS011;30973;51.442;3.580;2022-08-21T06:17:59;11.13;;;4.72;;
45236;SDS011;30973;51.442;3.580;2022-08-21T06:20:27;11.73;;;5.07;;
45236;SDS011;30973;51.442;3.580;2022-08-21T06:22:54;12.35;;;4.40;;
45236;SDS011;30973;51.442;3.580;2022-08-21T06:25:22;14.77;;;5.43;;
45236;SDS011;30973;51.442;3.580;2022-08-21T06:27:51;15.68;;;5.10;;
45236;SDS011;30973;51.442;3.580;2022-08-21T06:30:19;11.65;;;4.70;;
45236;SDS011;30973;51.442;3.580;2022-08-21T06:32:46;11.52;;;4.68;;
45236;SDS011;30973;51.442;3.580;2022-08-21T06:35:14;11.07;;;4.35;;
45236;SDS011;30973;51.442;3.580;2022-08-21T06:37:42;12.55;;;4.43;;
45236;SDS011;30973;51.442;3.580;2022-08-21T06:40:10;11.77;;;5.03;;
45236;SDS011;30973;51.442;3.580;2022-08-21T06:42:38;10.60;;;4.07;;
45236;SDS011;30973;51.442;3.580;2022-08-21T06:45:08;12.18;;;3.90;;
45236;SDS011;30973;51.442;3.580;2022-08-21T06:47:36;11.88;;;4.75;;
45236;SDS011;30973;51.442;3.580;2022-08-21T06:50:04;12.68;;;4.60;;
45236;SDS011;30973;51.442;3.580;2022-08-21T06:52:37;11.50;;;4.10;;
45236;SDS011;30973;51.442;3.580;2022-08-21T06:55:05;11.65;;;4.20;;
45236;SDS011;30973;51.442;3.580;2022-08-21T06:57:33;11.90;;;4.20;;
45236;SDS011;30973;51.442;3.580;2022-08-21T07:00:03;12.95;;;4.60;;
45236;SDS011;30973;51.442;3.580;2022-08-21T07:02:31;12.90;;;3.97;;
45236;SDS011;30973;51.442;3.580;2022-08-21T07:05:00;13.38;;;3.85;;
45236;SDS011;30973;51.442;3.580;2022-08-21T07:07:44;11.88;;;3.95;;
45236;SDS011;30973;51.442;3.580;2022-08-21T07:10:12;8.82;;;3.50;;
45236;SDS011;30973;51.442;3.580;2022-08-21T07:12:48;11.05;;;3.75;;
45236;SDS011;30973;51.442;3.580;2022-08-21T07:15:25;10.25;;;3.72;;
45236;SDS011;30973;51.442;3.580;2022-08-21T07:17:53;7.65;;;3.92;;
45236;SDS011;30973;51.442;3.580;2022-08-21T07:20:20;10.43;;;3.75;;
45236;SDS011;30973;51.442;3.580;2022-08-21T07:22:48;10.52;;;3.63;;
45236;SDS011;30973;51.442;3.580;2022-08-21T07:25:16;10.05;;;3.58;;
45236;SDS011;30973;51.442;3.580;2022-08-21T07:27:43;9.20;;;3.08;;
45236;SDS011;30973;51.442;3.580;2022-08-21T07:30:11;13.30;;;3.85;;
45236;SDS011;30973;51.442;3.580;2022-08-21T07:32:39;9.57;;;3.03;;
45236;SDS011;30973;51.442;3.580;2022-08-21T07:35:07;10.30;;;3.03;;
45236;SDS011;30973;51.442;3.580;2022-08-21T07:37:35;11.02;;;3.67;;
45236;SDS011;30973;51.442;3.580;2022-08-21T07:40:02;13.05;;;3.33;;
45236;SDS011;30973;51.442;3.580;2022-08-21T07:42:31;12.10;;;3.10;;
45236;SDS011;30973;51.442;3.580;2022-08-21T07:44:59;9.68;;;2.88;;
45236;SDS011;30973;51.442;3.580;2022-08-21T07:47:27;10.73;;;3.08;;
45236;SDS011;30973;51.442;3.580;2022-08-21T07:50:08;10.07;;;2.90;;
45236;SDS011;30973;51.442;3.580;2022-08-21T07:52:38;7.88;;;2.80;;
45236;SDS011;30973;51.442;3.580;2022-08-21T07:55:07;12.35;;;3.10;;
45236;SDS011;30973;51.442;3.580;2022-08-21T07:57:35;8.88;;;3.05;;
45236;SDS011;30973;51.442;3.580;2022-08-21T08:00:03;12.75;;;2.40;;
45236;SDS011;30973;51.442;3.580;2022-08-21T08:02:37;11.02;;;2.78;;
45236;SDS011;30973;51.442;3.580;2022-08-21T08:05:07;9.18;;;2.58;;
45236;SDS011;30973;51.442;3.580;2022-08-21T08:07:35;10.50;;;2.60;;
45236;SDS011;30973;51.442;3.580;2022-08-21T08:10:04;13.70;;;2.60;;
45236;SDS011;30973;51.442;3.580;2022-08-21T08:12:34;10.07;;;2.88;;
45236;SDS011;30973;51.442;3.580;2022-08-21T08:15:04;7.78;;;2.65;;
45236;SDS011;30973;51.442;3.580;2022-08-21T08:17:33;7.45;;;2.47;;
45236;SDS011;30973;51.442;3.580;2022-08-21T08:20:01;9.35;;;2.67;;
45236;SDS011;30973;51.442;3.580;2022-08-21T08:22:29;9.18;;;2.30;;
45236;SDS011;30973;51.442;3.580;2022-08-21T08:24:56;11.38;;;2.58;;
45236;SDS011;30973;51.442;3.580;2022-08-21T08:27:24;12.88;;;3.38;;
45236;SDS011;30973;51.442;3.580;2022-08-21T08:29:52;7.00;;;2.13;;
45236;SDS011;30973;51.442;3.580;2022-08-21T08:32:20;8.30;;;2.28;;
45236;SDS011;30973;51.442;3.580;2022-08-21T08:34:51;8.95;;;2.40;;
45236;SDS011;30973;51.442;3.580;2022-08-21T08:37:19;10.57;;;2.33;;
45236;SDS011;30973;51.442;3.580;2022-08-21T08:39:50;7.18;;;1.90;;
45236;SDS011;30973;51.442;3.580;2022-08-21T08:42:22;13.20;;;2.00;;
45236;SDS011;30973;51.442;3.580;2022-08-21T08:45:02;5.32;;;1.60;;
45236;SDS011;30973;51.442;3.580;2022-08-21T08:47:34;7.05;;;1.90;;
45236;SDS011;30973;51.442;3.580;2022-08-21T08:50:21;9.68;;;2.03;;
45236;SDS011;30973;51.442;3.580;2022-08-21T08:53:01;7.63;;;2.22;;
45236;SDS011;30973;51.442;3.580;2022-08-21T08:55:39;13.52;;;2.10;;
45236;SDS011;30973;51.442;3.580;2022-08-21T08:58:20;9.95;;;2.38;;
45236;SDS011;30973;51.442;3.580;2022-08-21T09:00:56;7.60;;;2.15;;
45236;SDS011;30973;51.442;3.580;2022-08-21T09:03:26;8.27;;;2.40;;
45236;SDS011;30973;51.442;3.580;2022-08-21T09:06:03;7.90;;;2.05;;
45236;SDS011;30973;51.442;3.580;2022-08-21T09:08:54;7.22;;;2.10;;
45236;SDS011;30973;51.442;3.580;2022-08-21T09:17:32;7.50;;;1.80;;
45236;SDS011;30973;51.442;3.580;2022-08-21T09:25:34;6.57;;;1.80;;
45236;SDS011;30973;51.442;3.580;2022-08-21T09:28:12;7.03;;;2.33;;
45236;SDS011;30973;51.442;3.580;2022-08-21T09:30:41;11.10;;;2.63;;
45236;SDS011;30973;51.442;3.580;2022-08-21T09:33:09;10.00;;;2.50;;
45236;SDS011;30973;51.442;3.580;2022-08-21T09:35:54;8.93;;;2.25;;
45236;SDS011;30973;51.442;3.580;2022-08-21T09:40:56;8.13;;;2.00;;
45236;SDS011;30973;51.442;3.580;2022-08-21T09:43:26;5.53;;;1.80;;
45236;SDS011;30973;51.442;3.580;2022-08-21T09:46:08;8.25;;;2.15;;
45236;SDS011;30973;51.442;3.580;2022-08-21T09:48:42;7.50;;;1.90;;
45236;SDS011;30973;51.442;3.580;2022-08-21T09:51:16;4.88;;;1.92;;
45236;SDS011;30973;51.442;3.580;2022-08-21T09:53:56;8.85;;;2.10;;
45236;SDS011;30973;51.442;3.580;2022-08-21T09:56:39;6.25;;;2.13;;
45236;SDS011;30973;51.442;3.580;2022-08-21T09:59:43;8.25;;;2.20;;
45236;SDS011;30973;51.442;3.580;2022-08-21T10:04:55;5.95;;;1.85;;
45236;SDS011;30973;51.442;3.580;2022-08-21T10:07:29;6.00;;;2.40;;
45236;SDS011;30973;51.442;3.580;2022-08-21T10:10:08;5.35;;;1.83;;
45236;SDS011;30973;51.442;3.580;2022-08-21T10:18:41;10.77;;;2.08;;
45236;SDS011;30973;51.442;3.580;2022-08-21T10:21:27;6.28;;;2.20;;
45236;SDS011;30973;51.442;3.580;2022-08-21T10:29:51;6.55;;;2.50;;
45236;SDS011;30973;51.442;3.580;2022-08-21T10:32:43;10.02;;;2.40;;
45236;SDS011;30973;51.442;3.580;2022-08-21T10:40:40;6.95;;;2.13;;
45236;SDS011;30973;51.442;3.580;2022-08-21T10:43:38;7.32;;;2.05;;
45236;SDS011;30973;51.442;3.580;2022-08-21T10:51:28;6.47;;;1.80;;
45236;SDS011;30973;51.442;3.580;2022-08-21T10:54:13;5.95;;;1.85;;
45236;SDS011;30973;51.442;3.580;2022-08-21T10:56:49;10.68;;;2.70;;
45236;SDS011;30973;51.442;3.580;2022-08-21T10:59:43;6.32;;;1.73;;
45236;SDS011;30973;51.442;3.580;2022-08-21T11:02:21;8.73;;;2.10;;
45236;SDS011;30973;51.442;3.580;2022-08-21T11:04:56;8.35;;;2.50;;
45236;SDS011;30973;51.442;3.580;2022-08-21T11:07:54;7.60;;;1.90;;
45236;SDS011;30973;51.442;3.580;2022-08-21T11:10:48;6.70;;;1.83;;
45236;SDS011;30973;51.442;3.580;2022-08-21T11:18:34;7.47;;;2.00;;
45236;SDS011;30973;51.442;3.580;2022-08-21T11:23:41;6.43;;;2.13;;
45236;SDS011;30973;51.442;3.580;2022-08-21T11:26:30;6.72;;;1.67;;
45236;SDS011;30973;51.442;3.580;2022-08-21T11:29:13;7.47;;;2.25;;
45236;SDS011;30973;51.442;3.580;2022-08-21T11:34:49;7.00;;;2.17;;
45236;SDS011;30973;51.442;3.580;2022-08-21T11:43:25;10.32;;;2.53;;
45236;SDS011;30973;51.442;3.580;2022-08-21T11:46:24;6.10;;;1.95;;
45236;SDS011;30973;51.442;3.580;2022-08-21T11:49:16;7.35;;;2.03;;
45236;SDS011;30973;51.442;3.580;2022-08-21T11:52:16;7.65;;;2.25;;
45236;SDS011;30973;51.442;3.580;2022-08-21T11:54:52;7.40;;;1.90;;
45236;SDS011;30973;51.442;3.580;2022-08-21T11:57:34;6.20;;;1.80;;
45236;SDS011;30973;51.442;3.580;2022-08-21T12:00:29;9.27;;;2.40;;
45236;SDS011;30973;51.442;3.580;2022-08-21T12:03:29;6.25;;;2.03;;
45236;SDS011;30973;51.442;3.580;2022-08-21T12:06:00;8.82;;;2.53;;
45236;SDS011;30973;51.442;3.580;2022-08-21T12:11:06;7.63;;;2.13;;
45236;SDS011;30973;51.442;3.580;2022-08-21T12:13:37;7.70;;;2.40;;
45236;SDS011;30973;51.442;3.580;2022-08-21T12:16:09;6.18;;;1.90;;
45236;SDS011;30973;51.442;3.580;2022-08-21T12:18:42;6.97;;;1.73;;
45236;SDS011;30973;51.442;3.580;2022-08-21T12:21:26;7.05;;;2.08;;
45236;SDS011;30973;51.442;3.580;2022-08-21T12:26:49;7.13;;;1.65;;
45236;SDS011;30973;51.442;3.580;2022-08-21T12:32:02;7.55;;;2.13;;
45236;SDS011;30973;51.442;3.580;2022-08-21T12:34:41;9.52;;;2.20;;
45236;SDS011;30973;51.442;3.580;2022-08-21T12:37:22;7.90;;;2.30;;
45236;SDS011;30973;51.442;3.580;2022-08-21T12:40:00;9.18;;;2.30;;
45236;SDS011;30973;51.442;3.580;2022-08-21T12:42:37;8.43;;;2.35;;
45236;SDS011;30973;51.442;3.580;2022-08-21T12:48:07;8.40;;;1.90;;
45236;SDS011;30973;51.442;3.580;2022-08-21T12:50:42;4.75;;;1.90;;
45236;SDS011;30973;51.442;3.580;2022-08-21T12:56:03;8.88;;;2.22;;
45236;SDS011;30973;51.442;3.580;2022-08-21T12:58:35;6.25;;;2.05;;
45236;SDS011;30973;51.442;3.580;2022-08-21T13:01:07;5.47;;;1.80;;
45236;SDS011;30973;51.442;3.580;2022-08-21T13:03:40;6.13;;;1.90;;
45236;SDS011;30973;51.442;3.580;2022-08-21T13:06:12;6.00;;;1.90;;
45236;SDS011;30973;51.442;3.580;2022-08-21T13:08:43;8.15;;;2.05;;
45236;SDS011;30973;51.442;3.580;2022-08-21T13:11:15;8.40;;;2.00;;
45236;SDS011;30973;51.442;3.580;2022-08-21T13:13:59;5.85;;;1.88;;
45236;SDS011;30973;51.442;3.580;2022-08-21T13:16:30;8.48;;;2.03;;
45236;SDS011;30973;51.442;3.580;2022-08-21T13:19:03;7.57;;;2.60;;
45236;SDS011;30973;51.442;3.580;2022-08-21T13:21:40;4.65;;;1.70;;
45236;SDS011;30973;51.442;3.580;2022-08-21T13:24:12;8.05;;;2.17;;
45236;SDS011;30973;51.442;3.580;2022-08-21T13:30:06;7.78;;;1.90;;
45236;SDS011;30973;51.442;3.580;2022-08-21T13:32:45;8.77;;;2.40;;
45236;SDS011;30973;51.442;3.580;2022-08-21T13:35:19;5.30;;;1.83;;
45236;SDS011;30973;51.442;3.580;2022-08-21T13:37:49;7.72;;;2.17;;
45236;SDS011;30973;51.442;3.580;2022-08-21T13:40:25;7.13;;;2.20;;
45236;SDS011;30973;51.442;3.580;2022-08-21T13:42:55;7.82;;;2.25;;
45236;SDS011;30973;51.442;3.580;2022-08-21T13:45:32;8.15;;;2.33;;
45236;SDS011;30973;51.442;3.580;2022-08-21T13:48:00;8.85;;;2.00;;
45236;SDS011;30973;51.442;3.580;2022-08-21T13:50:33;6.68;;;2.08;;
45236;SDS011;30973;51.442;3.580;2022-08-21T13:53:04;5.68;;;2.13;;
45236;SDS011;30973;51.442;3.580;2022-08-21T13:55:40;7.50;;;2.20;;
45236;SDS011;30973;51.442;3.580;2022-08-21T13:58:10;5.85;;;2.03;;
45236;SDS011;30973;51.442;3.580;2022-08-21T14:00:48;5.00;;;1.85;;
45236;SDS011;30973;51.442;3.580;2022-08-21T14:08:46;7.00;;;1.70;;
45236;SDS011;30973;51.442;3.580;2022-08-21T14:11:20;7.72;;;2.40;;
45236;SDS011;30973;51.442;3.580;2022-08-21T14:13:49;9.48;;;2.13;;
45236;SDS011;30973;51.442;3.580;2022-08-21T14:16:29;7.60;;;2.28;;
45236;SDS011;30973;51.442;3.580;2022-08-21T14:19:22;10.63;;;2.45;;
45236;SDS011;30973;51.442;3.580;2022-08-21T14:21:54;7.57;;;2.30;;
45236;SDS011;30973;51.442;3.580;2022-08-21T14:26:53;8.20;;;2.50;;
45236;SDS011;30973;51.442;3.580;2022-08-21T14:29:25;8.35;;;2.00;;
45236;SDS011;30973;51.442;3.580;2022-08-21T14:31:59;7.10;;;2.15;;
45236;SDS011;30973;51.442;3.580;2022-08-21T14:34:51;7.03;;;2.10;;
45236;SDS011;30973;51.442;3.580;2022-08-21T14:37:20;8.45;;;2.58;;
45236;SDS011;30973;51.442;3.580;2022-08-21T14:39:48;6.90;;;2.20;;
45236;SDS011;30973;51.442;3.580;2022-08-21T14:42:16;7.43;;;2.47;;
45236;SDS011;30973;51.442;3.580;2022-08-21T14:44:44;5.20;;;2.33;;
45236;SDS011;30973;51.442;3.580;2022-08-21T14:47:11;8.30;;;2.13;;
45236;SDS011;30973;51.442;3.580;2022-08-21T14:49:39;8.40;;;2.30;;
45236;SDS011;30973;51.442;3.580;2022-08-21T14:52:06;7.20;;;2.42;;
45236;SDS011;30973;51.442;3.580;2022-08-21T14:54:34;7.95;;;2.40;;
45236;SDS011;30973;51.442;3.580;2022-08-21T14:57:03;9.57;;;2.08;;
45236;SDS011;30973;51.442;3.580;2022-08-21T14:59:34;8.27;;;2.20;;
45236;SDS011;30973;51.442;3.580;2022-08-21T15:02:02;6.85;;;1.98;;
45236;SDS011;30973;51.442;3.580;2022-08-21T15:04:31;5.97;;;2.05;;
45236;SDS011;30973;51.442;3.580;2022-08-21T15:07:00;9.25;;;2.60;;
45236;SDS011;30973;51.442;3.580;2022-08-21T15:09:27;7.82;;;2.67;;
45236;SDS011;30973;51.442;3.580;2022-08-21T15:11:56;8.85;;;2.67;;
45236;SDS011;30973;51.442;3.580;2022-08-21T15:14:25;10.05;;;2.20;;
45236;SDS011;30973;51.442;3.580;2022-08-21T15:16:54;7.10;;;1.80;;
45236;SDS011;30973;51.442;3.580;2022-08-21T15:19:22;8.07;;;2.22;;
45236;SDS011;30973;51.442;3.580;2022-08-21T15:21:49;9.23;;;2.25;;
45236;SDS011;30973;51.442;3.580;2022-08-21T15:24:16;5.40;;;2.05;;
45236;SDS011;30973;51.442;3.580;2022-08-21T15:26:44;7.70;;;2.42;;
45236;SDS011;30973;51.442;3.580;2022-08-21T15:29:12;7.82;;;2.25;;
45236;SDS011;30973;51.442;3.580;2022-08-21T15:31:54;6.97;;;2.90;;
45236;SDS011;30973;51.442;3.580;2022-08-21T15:34:27;6.15;;;2.08;;
45236;SDS011;30973;51.442;3.580;2022-08-21T15:36:56;11.40;;;2.22;;
45236;SDS011;30973;51.442;3.580;2022-08-21T15:39:25;7.25;;;2.08;;
45236;SDS011;30973;51.442;3.580;2022-08-21T15:42:02;7.50;;;1.73;;
45236;SDS011;30973;51.442;3.580;2022-08-21T15:44:37;8.82;;;2.35;;
45236;SDS011;30973;51.442;3.580;2022-08-21T15:47:12;8.88;;;2.58;;
45236;SDS011;30973;51.442;3.580;2022-08-21T15:49:41;7.25;;;2.92;;
45236;SDS011;30973;51.442;3.580;2022-08-21T15:52:15;9.00;;;2.40;;
45236;SDS011;30973;51.442;3.580;2022-08-21T15:54:43;7.25;;;3.10;;
45236;SDS011;30973;51.442;3.580;2022-08-21T15:57:11;11.60;;;3.35;;
45236;SDS011;30973;51.442;3.580;2022-08-21T15:59:42;6.82;;;2.40;;
45236;SDS011;30973;51.442;3.580;2022-08-21T16:02:15;7.70;;;2.22;;
45236;SDS011;30973;51.442;3.580;2022-08-21T16:04:47;7.20;;;2.58;;
45236;SDS011;30973;51.442;3.580;2022-08-21T16:07:15;5.88;;;2.45;;
45236;SDS011;30973;51.442;3.580;2022-08-21T16:09:43;11.77;;;2.78;;
45236;SDS011;30973;51.442;3.580;2022-08-21T16:12:20;6.32;;;2.00;;
45236;SDS011;30973;51.442;3.580;2022-08-21T16:14:51;6.43;;;2.10;;
45236;SDS011;30973;51.442;3.580;2022-08-21T16:17:27;6.50;;;2.50;;
45236;SDS011;30973;51.442;3.580;2022-08-21T16:19:56;11.98;;;2.83;;
45236;SDS011;30973;51.442;3.580;2022-08-21T16:22:24;9.45;;;2.80;;
45236;SDS011;30973;51.442;3.580;2022-08-21T16:25:06;10.60;;;2.60;;
45236;SDS011;30973;51.442;3.580;2022-08-21T16:27:34;9.93;;;2.42;;
45236;SDS011;30973;51.442;3.580;2022-08-21T16:30:04;9.80;;;2.60;;
45236;SDS011;30973;51.442;3.580;2022-08-21T16:32:33;10.30;;;2.65;;